09:59
Airports
History
Links
Donate
Help keep this website running!
PayPal
Bitcoin
This page is community maintained. The information is intended for PC simulator navigation or reference.
Always use approved charts for navigation.
KEDG
WEIDE AHP
WEIDE AHP (KEDG)
Edgewood, Maryland, United States (21010)
(U)
Lat/Lng:39° 23' 29.64" N / 76° 17' 27.92" W
39.391568 / -76.291088
Elevation:30'ft / 9mMSL
ID / ICAO:KEDG
Runways:1
Longest:01-19
Asphalt 1,416m / 4,646ft
Nearby Weather09:48 GMT 2017-11-18
Nearby weather at KMTN, Martin State located 8.0 nautical miles from KEDG
Altimeter: 30.01
Visibility: 10.0 statute miles
Wind: 0 knots (from 000°)
Temp: 0°c / 32°f
Humidity: %

METAR: KMTN 180948Z AUTO 00000KT 10SM CLR 00/00 A3001 RMK AO2

(Powered by phpweather)
Airport Radio Frequencies
CTAF: 126.2
Approach: 119
Nearby VORs <50NM
Nearby NDBs
Runway 01 / 19
Dimensions:1416.2 x 26.8m 4646' x 88'ft
Surface:Asphalt
Edge Lights:Medium intensity
Runway 01 [A]Runway 19 [B]
Heading:355°TH 175°TH
Lat:
Lng:
39° 23' 6.9"N
76° 17' 25.53"W
39° 23' 52.39"N
76° 17' 30.3"W
User Notes and Comments
39° 23' 29.64" N / 76° 17' 27.92" W
Distance To
Airport ID:
Nearby Airports
(X) Baltimore Airpark 7.3 NM
1W2 W 277°
(C) Martin State 8.0 NM
KMTN ( WX ) SW 235°
(R) Phillips Aaf 8.3 NM
KAPG ( WX ) NE 51°
(U) Fallston 9.9 NM
W42 NW 319°
(R) Pond View Pvt 10.3 NM
0MD4 SSE 147°
(R) Smith Field 11.0 NM
MD66 ESE 109°
(U) Essex Skypark 11.7 NM
W48 SW 220°
VFR Chart
Flight Planning at SkyVector.com